ESPA Airport Information

Runway Information
Runway 14 Length 10990 ft width 148 ft
Elevation 65 ft Threshold ft Heading 137
Runway 32 Length 10990 ft Width 148 ft
Elevation 21 ft Threshold ft Heading 317
Airport Frequencies
Type APP Name CON Frequency 125.45 MHZ
Type OPS Name VADER NORT Frequency 122.6 MHZ
Type TWR Name TWR Frequency 128.2 MHZ
Airport Navaids
Type VOR-DME Name Lulea Frequency 115100 KHZ
Airport Weather Information & NOTAM
ADDS - METARS form results

(1043 UTC 07 February 2023)
Data provider http://aviationweather.gov/metar/data/
 
METAR text: ESPA 071020Z 21010KT CAVOK 04/01 Q1016
Conditions at: ESPA (KALLAX/LULEA (AF, SE) observed 1020 UTC 07 February 2023
Temperature: 4.0°C (39°F)
Dewpoint: 1.0°C (34°F) [RH = 81%]
Pressure (altimeter): 30.00 inches Hg (1016.0 mb)
Winds: from the SSW (210 degrees) at 12 MPH (10 knots; 5.1 m/s)
Visibility: 6 or more miles (10+ km)
Ceiling: ceiling and visibility are OK
Clouds: unknown
Weather: no significant weather observed at this time

METAR text: ESPA 070950Z 21009KT CAVOK 04/02 Q1016
Conditions at: ESPA (KALLAX/LULEA (AF, SE) observed 0950 UTC 07 February 2023
Temperature: 4.0°C (39°F)
Dewpoint: 2.0°C (36°F) [RH = 87%]
Pressure (altimeter): 30.00 inches Hg (1016.0 mb)
Winds: from the SSW (210 degrees) at 10 MPH (9 knots; 4.6 m/s)
Visibility: 6 or more miles (10+ km)
Ceiling: ceiling and visibility are OK
Clouds: unknown
Weather: no significant weather observed at this time

Forecast for: ESPA (KALLAX/LULEA (AF, SE)
Text: TAF ESPA 070830Z 0709/0718 18005KT CAVOK
Forecast period: 0900 to 1000 UTC 07 February 2023
Forecast type: FROM: standard forecast or significant change
Winds: from the S (180 degrees) at 6 MPH (5 knots; 2.6 m/s)
Visibility: 6 or more miles (10+ km)
Ceiling: unknown
Clouds: missing
Weather: NSW  (no significant weather)
Text: BECMG 0710/0712 24010G20KT RMK MIL
Forecast period: 1000 to 1800 UTC 07 February 2023
Forecast type: BECOMING: Conditions expected to become as follows by 1200 UTC 07 February 2023
Winds: from the WSW (240 degrees) at 12 MPH (10 knots; 5.1 m/s)
gusting to 23 MPH (20 knots; 10.3 m/s)
Visibility: 6 or more miles (10+ km)
Ceiling: unknown
Clouds: missing
Weather: NSW  (no significant weather)